createdAt,value
2023-03-26T00:02:02.138Z,7.60
2023-03-26T00:05:04.387Z,7.50
2023-03-26T00:08:08.752Z,7.40
2023-03-26T00:11:12.501Z,7.40
2023-03-26T00:14:17.615Z,7.30
2023-03-26T00:17:19.441Z,7.20
2023-03-26T00:20:21.308Z,7.20
2023-03-26T00:23:23.513Z,7.20
2023-03-26T00:26:26.717Z,7.20
2023-03-26T00:29:28.696Z,7.20
2023-03-26T00:32:30.869Z,7.20
2023-03-26T00:35:35.432Z,7.20
2023-03-26T00:38:39.207Z,7.30
2023-03-26T00:41:43.710Z,7.30
2023-03-26T00:44:45.573Z,7.30
2023-03-26T00:47:47.776Z,7.20
2023-03-26T00:50:50.369Z,7.30
2023-03-26T00:53:52.610Z,7.30
2023-03-26T00:56:56.021Z,7.30
2023-03-26T00:59:57.896Z,7.20
2023-03-26T01:02:59.812Z,7.20
2023-03-26T01:06:08.342Z,7.20
2023-03-26T01:09:16.026Z,7.20
2023-03-26T01:12:22.256Z,7.20
2023-03-26T01:15:29.934Z,7.20
2023-03-26T01:18:34.194Z,7.10
2023-03-26T01:21:38.726Z,7.10
2023-03-26T01:24:42.654Z,7.10
2023-03-26T01:27:51.936Z,7.10
2023-03-26T01:31:10.157Z,7.10
2023-03-26T01:34:23.904Z,7.10
2023-03-26T01:37:34.897Z,7.20
2023-03-26T01:41:07.035Z,7.20
2023-03-26T01:44:24.070Z,7.20
2023-03-26T01:47:27.487Z,7.20
2023-03-26T01:50:29.714Z,7.20
2023-03-26T01:53:33.502Z,7.30
2023-03-26T01:57:22.676Z,7.30
2023-03-26T02:00:30.558Z,7.20
2023-03-26T02:03:39.112Z,7.20
2023-03-26T02:06:50.081Z,7.20
2023-03-26T02:09:58.302Z,7.20
2023-03-26T02:13:00.821Z,7.10
2023-03-26T02:16:06.051Z,7.10
2023-03-26T02:19:15.570Z,7.10
2023-03-26T02:22:17.791Z,7.00
2023-03-26T02:25:21.225Z,7.00
2023-03-26T02:28:23.112Z,6.90
2023-03-26T02:31:26.562Z,6.90
2023-03-26T02:34:28.441Z,6.90
2023-03-26T02:37:30.509Z,6.90
2023-03-26T02:40:32.454Z,6.90
2023-03-26T02:43:34.240Z,6.90
2023-03-26T02:46:36.200Z,7.00
2023-03-26T02:49:38.071Z,7.00
2023-03-26T02:52:40.014Z,7.00
2023-03-26T02:55:41.950Z,7.00
2023-03-26T02:58:43.714Z,7.00
2023-03-26T03:01:45.444Z,7.00
2023-03-26T03:04:47.422Z,7.10
2023-03-26T03:07:49.150Z,7.10
2023-03-26T03:11:01.749Z,7.10
2023-03-26T03:14:04.497Z,7.10
2023-03-26T03:17:06.551Z,7.10
2023-03-26T03:20:12.038Z,7.10
2023-03-26T03:23:14.130Z,7.10
2023-03-26T03:26:21.809Z,7.10
2023-03-26T03:29:23.984Z,7.10
2023-03-26T03:32:26.088Z,7.00
2023-03-26T03:35:30.231Z,7.10
2023-03-26T03:38:32.060Z,7.00
2023-03-26T03:41:33.999Z,7.00
2023-03-26T03:44:36.037Z,7.00
2023-03-26T03:47:38.247Z,7.00
2023-03-26T03:50:39.974Z,7.00
2023-03-26T03:53:41.782Z,7.00
2023-03-26T03:56:45.736Z,7.00
2023-03-26T03:59:48.519Z,7.00
2023-03-26T04:02:50.596Z,7.00
2023-03-26T04:05:55.107Z,7.00
2023-03-26T04:08:57.257Z,7.00
2023-03-26T04:11:59.082Z,7.00
2023-03-26T04:15:01.033Z,7.00
2023-03-26T04:18:02.995Z,7.00
2023-03-26T04:21:07.506Z,7.00
2023-03-26T04:24:10.895Z,7.00
2023-03-26T04:27:16.623Z,7.00
2023-03-26T04:30:20.758Z,7.00
2023-03-26T04:33:22.804Z,7.00
2023-03-26T04:36:28.597Z,6.90
2023-03-26T04:39:30.621Z,7.00
2023-03-26T04:42:33.324Z,6.80
2023-03-26T04:45:35.203Z,6.90
2023-03-26T04:48:38.726Z,6.90
2023-03-26T04:51:42.525Z,6.90
2023-03-26T04:54:45.751Z,6.80
2023-03-26T04:57:55.701Z,6.80
2023-03-26T05:01:01.160Z,6.80
2023-03-26T05:04:13.599Z,6.70
2023-03-26T05:07:19.124Z,6.70
2023-03-26T05:10:21.885Z,6.70
2023-03-26T05:13:24.295Z,6.70
2023-03-26T05:16:28.279Z,6.70
2023-03-26T05:19:30.048Z,6.70
2023-03-26T05:22:31.792Z,6.70
2023-03-26T05:25:34.881Z,6.70
2023-03-26T05:28:37.057Z,6.70
2023-03-26T05:31:38.874Z,6.70
2023-03-26T05:34:44.296Z,6.70
2023-03-26T05:37:47.319Z,6.80
2023-03-26T05:40:49.188Z,6.70
2023-03-26T05:43:51.239Z,6.80
2023-03-26T05:46:53.278Z,6.70
2023-03-26T05:49:55.271Z,6.80
2023-03-26T05:52:57.111Z,6.80
2023-03-26T05:55:59.176Z,6.80
2023-03-26T05:59:01.139Z,6.80
2023-03-26T06:02:03.009Z,6.90
2023-03-26T06:05:05.200Z,6.90
2023-03-26T06:08:07.289Z,6.90
2023-03-26T06:11:13.166Z,6.90
2023-03-26T06:14:14.893Z,7.00
2023-03-26T06:17:16.696Z,7.00
2023-03-26T06:20:18.539Z,7.00
2023-03-26T06:23:20.915Z,7.10
2023-03-26T06:26:22.894Z,7.10
2023-03-26T06:29:24.757Z,7.10
2023-03-26T06:32:26.574Z,7.20
2023-03-26T06:35:30.032Z,7.20
2023-03-26T06:38:31.982Z,7.20
2023-03-26T06:41:34.617Z,7.30
2023-03-26T06:44:36.803Z,7.30
2023-03-26T06:47:38.862Z,7.30
2023-03-26T06:50:40.614Z,7.40
2023-03-26T06:53:42.410Z,7.30
2023-03-26T06:56:44.987Z,7.40
2023-03-26T06:59:46.863Z,7.40
2023-03-26T07:02:48.798Z,7.40
2023-03-26T07:05:50.878Z,7.40
2023-03-26T07:08:52.711Z,7.40
2023-03-26T07:11:54.560Z,7.40
2023-03-26T07:14:57.912Z,7.50
2023-03-26T07:18:01.717Z,7.50
2023-03-26T07:21:03.842Z,7.60
2023-03-26T07:24:06.036Z,7.60
2023-03-26T07:27:46.727Z,7.60
2023-03-26T07:31:06.685Z,7.70
2023-03-26T07:34:35.295Z,7.70
2023-03-26T07:37:55.918Z,7.70
2023-03-26T07:41:07.403Z,7.80
2023-03-26T07:44:18.939Z,7.80
2023-03-26T07:47:27.259Z,7.80
2023-03-26T07:50:29.189Z,7.80
2023-03-26T07:53:31.214Z,7.90
2023-03-26T07:56:42.802Z,7.90
2023-03-26T07:59:54.475Z,7.90
2023-03-26T08:03:15.162Z,7.90
2023-03-26T08:06:31.024Z,8.00
2023-03-26T08:09:40.640Z,8.00
2023-03-26T08:12:55.140Z,8.00
2023-03-26T08:16:16.966Z,8.00
2023-03-26T08:19:54.552Z,8.00
2023-03-26T08:23:19.917Z,8.00
2023-03-26T08:26:44.527Z,8.10
2023-03-26T08:30:17.201Z,8.10
2023-03-26T08:33:20.868Z,8.20
2023-03-26T08:36:23.399Z,8.20
2023-03-26T08:39:25.782Z,8.30
2023-03-26T08:43:05.737Z,8.40
2023-03-26T08:46:46.501Z,8.50
2023-03-26T08:50:00.231Z,8.60
2023-03-26T08:53:27.838Z,8.60
2023-03-26T08:56:32.697Z,8.60
2023-03-26T08:59:56.796Z,8.70
2023-03-26T09:03:05.947Z,8.70
2023-03-26T09:06:35.787Z,8.60
2023-03-26T09:09:50.320Z,8.70
2023-03-26T09:13:24.758Z,8.70
2023-03-26T09:16:59.309Z,8.70
2023-03-26T09:20:23.049Z,8.70
2023-03-26T09:23:37.072Z,8.80
2023-03-26T09:27:07.104Z,8.80
2023-03-26T09:30:15.665Z,8.90
2023-03-26T09:33:31.303Z,8.90
2023-03-26T09:37:08.329Z,9.00
2023-03-26T09:40:18.973Z,9.00
2023-03-26T09:43:45.468Z,9.00
2023-03-26T09:47:14.549Z,9.10
2023-03-26T09:50:52.816Z,9.10
2023-03-26T09:54:39.390Z,9.20
2023-03-26T09:58:18.595Z,9.10
2023-03-26T10:01:49.340Z,9.10
2023-03-26T10:05:16.091Z,9.00
2023-03-26T10:08:32.073Z,9.00
2023-03-26T10:12:00.625Z,8.90
2023-03-26T10:15:32.270Z,8.90
2023-03-26T10:18:42.993Z,8.80
2023-03-26T10:22:05.425Z,8.70
2023-03-26T10:25:28.754Z,8.70
2023-03-26T10:28:40.884Z,8.70
2023-03-26T10:32:02.163Z,8.70
2023-03-26T10:35:41.752Z,8.60
2023-03-26T10:39:03.341Z,8.50
2023-03-26T10:42:24.206Z,8.30
2023-03-26T10:45:41.408Z,8.10
2023-03-26T10:48:53.677Z,8.00
2023-03-26T10:52:05.031Z,7.80
2023-03-26T10:55:24.310Z,7.80
2023-03-26T10:58:48.502Z,7.70
2023-03-26T11:02:30.950Z,7.60
2023-03-26T11:05:38.658Z,7.50
2023-03-26T11:09:18.057Z,7.50
2023-03-26T11:12:28.829Z,7.40
2023-03-26T11:15:41.829Z,7.40
2023-03-26T11:18:47.122Z,7.40
2023-03-26T11:22:12.641Z,7.40
2023-03-26T11:25:36.883Z,7.40
2023-03-26T11:29:03.041Z,7.40
2023-03-26T11:32:10.760Z,7.40
2023-03-26T11:35:41.043Z,7.50
2023-03-26T11:38:47.131Z,7.50
2023-03-26T11:41:52.223Z,7.50
2023-03-26T11:45:02.574Z,7.40
2023-03-26T11:48:17.121Z,7.40
2023-03-26T11:51:33.905Z,7.50
2023-03-26T11:54:37.060Z,7.50
2023-03-26T11:57:43.179Z,7.60
2023-03-26T12:00:45.233Z,7.50
2023-03-26T12:04:07.134Z,7.40
2023-03-26T12:07:23.950Z,7.40
2023-03-26T12:10:38.302Z,7.40
2023-03-26T12:13:44.719Z,7.40
2023-03-26T12:17:08.767Z,7.40
2023-03-26T12:20:25.773Z,7.30
2023-03-26T12:23:44.398Z,7.30
2023-03-26T12:26:46.433Z,7.30
2023-03-26T12:30:25.555Z,7.40
2023-03-26T12:33:35.520Z,7.50
2023-03-26T12:36:39.018Z,7.70
2023-03-26T12:40:09.700Z,7.80
2023-03-26T12:44:52.814Z,8.00
2023-03-26T12:47:58.180Z,8.10
2023-03-26T12:50:16.470Z,8.20
2023-03-26T12:53:40.055Z,8.20
2023-03-26T12:57:11.949Z,8.20
2023-03-26T13:00:27.292Z,8.20
2023-03-26T13:03:29.637Z,8.20
2023-03-26T13:07:00.043Z,8.10
2023-03-26T13:10:04.156Z,8.00
2023-03-26T13:13:28.311Z,8.00
2023-03-26T13:16:42.505Z,7.90
2023-03-26T13:19:59.478Z,7.80
2023-03-26T13:23:42.827Z,7.80
2023-03-26T13:27:17.554Z,7.90
2023-03-26T13:30:51.754Z,7.90
2023-03-26T13:33:56.956Z,8.00
2023-03-26T13:37:23.167Z,8.10
2023-03-26T13:40:43.378Z,8.10
2023-03-26T13:44:00.686Z,8.30
2023-03-26T13:47:12.658Z,8.40
2023-03-26T13:50:19.355Z,8.60
2023-03-26T13:53:29.358Z,8.70
2023-03-26T13:56:38.795Z,8.80
2023-03-26T13:59:58.223Z,8.90
2023-03-26T14:03:12.083Z,9.00
2023-03-26T14:06:46.596Z,9.00
2023-03-26T14:09:54.345Z,9.10
2023-03-26T14:13:22.714Z,9.00
2023-03-26T14:16:31.586Z,9.00
2023-03-26T14:20:09.196Z,9.00
2023-03-26T14:23:25.913Z,9.00
2023-03-26T14:26:40.498Z,9.00
2023-03-26T14:30:12.370Z,9.00
2023-03-26T14:33:27.910Z,9.00
2023-03-26T14:37:06.207Z,9.10
2023-03-26T14:40:17.297Z,9.10
2023-03-26T14:43:34.410Z,9.10
2023-03-26T14:46:41.601Z,9.10
2023-03-26T14:49:46.511Z,9.10
2023-03-26T14:52:50.911Z,9.10
2023-03-26T14:56:01.499Z,9.10
2023-03-26T14:59:34.787Z,9.10
2023-03-26T15:03:22.668Z,9.10
2023-03-26T15:06:48.342Z,9.10
2023-03-26T15:10:13.327Z,9.00
2023-03-26T15:13:51.888Z,9.00
2023-03-26T15:17:32.768Z,9.00
2023-03-26T15:20:47.686Z,8.90
2023-03-26T15:24:08.268Z,8.90
2023-03-26T15:27:28.393Z,9.10
2023-03-26T15:30:59.617Z,8.90
2023-03-26T15:34:20.159Z,8.90
2023-03-26T15:37:51.737Z,9.00
2023-03-26T15:41:01.871Z,9.00
2023-03-26T15:44:25.544Z,9.10
2023-03-26T15:47:48.704Z,9.20
2023-03-26T15:51:04.890Z,9.10
2023-03-26T15:54:25.471Z,9.10
2023-03-26T15:58:01.446Z,9.10
2023-03-26T16:01:21.492Z,9.10
2023-03-26T16:04:39.236Z,9.10
2023-03-26T16:08:18.966Z,9.10
2023-03-26T16:11:44.259Z,9.00
2023-03-26T16:15:03.816Z,9.00
2023-03-26T16:18:12.279Z,9.00
2023-03-26T16:21:37.211Z,8.90
2023-03-26T16:24:44.760Z,8.80
2023-03-26T16:27:46.986Z,8.80
2023-03-26T16:31:10.723Z,8.70
2023-03-26T16:34:38.863Z,8.60
2023-03-26T16:37:52.945Z,8.60
2023-03-26T16:41:15.216Z,8.60
2023-03-26T16:44:28.590Z,8.50
2023-03-26T16:48:00.995Z,8.50
2023-03-26T16:51:51.047Z,8.40
2023-03-26T16:55:24.572Z,8.40
2023-03-26T16:58:48.013Z,8.40
2023-03-26T17:01:59.718Z,8.40
2023-03-26T17:05:34.345Z,8.30
2023-03-26T17:09:04.900Z,8.30
2023-03-26T17:12:20.331Z,8.30
2023-03-26T17:15:27.255Z,8.20
2023-03-26T17:18:43.833Z,8.20
2023-03-26T17:21:57.517Z,8.20
2023-03-26T17:25:11.917Z,8.10
2023-03-26T17:28:41.368Z,8.00
2023-03-26T17:32:01.182Z,8.10
2023-03-26T17:35:07.305Z,7.90
2023-03-26T17:38:18.154Z,7.90
2023-03-26T17:41:53.203Z,7.80
2023-03-26T17:45:02.662Z,7.80
2023-03-26T17:48:21.943Z,7.70
2023-03-26T17:51:51.631Z,7.70
2023-03-26T17:54:56.718Z,7.70
2023-03-26T17:58:01.565Z,7.70
2023-03-26T18:01:28.828Z,7.70
2023-03-26T18:04:37.622Z,7.70
2023-03-26T18:08:13.328Z,7.60
2023-03-26T18:11:27.434Z,7.60
2023-03-26T18:14:45.228Z,7.60
2023-03-26T18:17:48.083Z,7.50
2023-03-26T18:20:52.014Z,7.50
2023-03-26T18:23:53.923Z,7.50
2023-03-26T18:27:16.484Z,7.50
2023-03-26T18:30:23.516Z,7.50
2023-03-26T18:33:26.047Z,7.40
2023-03-26T18:36:28.055Z,7.50
2023-03-26T18:39:29.829Z,7.50
2023-03-26T18:42:33.013Z,7.50
2023-03-26T18:45:37.688Z,7.40
2023-03-26T18:48:40.107Z,7.40
2023-03-26T18:51:56.089Z,7.30
2023-03-26T18:54:59.806Z,7.20
2023-03-26T18:58:20.932Z,7.00
2023-03-26T19:01:26.131Z,6.80
2023-03-26T19:04:31.764Z,6.70
2023-03-26T19:07:35.889Z,6.60
2023-03-26T19:10:37.876Z,6.20
2023-03-26T19:13:43.490Z,6.40
2023-03-26T19:16:56.517Z,6.30
2023-03-26T19:19:58.564Z,6.30
2023-03-26T19:23:00.398Z,6.30
2023-03-26T19:26:05.430Z,6.30
2023-03-26T19:29:10.654Z,6.30
2023-03-26T19:32:23.240Z,6.30
2023-03-26T19:35:25.306Z,6.30
2023-03-26T19:38:28.946Z,6.20
2023-03-26T19:41:35.398Z,6.20
2023-03-26T19:44:41.797Z,6.30
2023-03-26T19:47:50.432Z,6.30
2023-03-26T19:51:06.130Z,6.30
2023-03-26T19:54:16.510Z,6.20
2023-03-26T19:57:18.597Z,6.20
2023-03-26T20:00:20.457Z,6.20
2023-03-26T20:03:27.386Z,6.20
2023-03-26T20:06:42.292Z,6.20
2023-03-26T20:09:45.525Z,6.20
2023-03-26T20:12:47.285Z,6.20
2023-03-26T20:16:07.445Z,6.20
2023-03-26T20:19:09.596Z,6.20
2023-03-26T20:22:16.966Z,6.20
2023-03-26T20:25:25.203Z,6.20
2023-03-26T20:28:28.169Z,6.20
2023-03-26T20:31:30.261Z,6.20
2023-03-26T20:34:32.519Z,6.20
2023-03-26T20:37:34.184Z,6.30
2023-03-26T20:40:35.912Z,6.20
2023-03-26T20:43:38.322Z,6.30
2023-03-26T20:46:40.049Z,6.30
2023-03-26T20:49:42.071Z,6.30
2023-03-26T20:52:44.368Z,6.30
2023-03-26T20:55:46.970Z,6.30
2023-03-26T20:59:09.997Z,6.50
2023-03-26T21:02:12.581Z,6.30
2023-03-26T21:05:15.109Z,6.30
2023-03-26T21:08:19.232Z,6.30
2023-03-26T21:11:37.092Z,6.30
2023-03-26T21:14:44.460Z,6.30
2023-03-26T21:17:46.598Z,6.30
2023-03-26T21:21:05.241Z,6.30
2023-03-26T21:24:33.868Z,6.30
2023-03-26T21:27:52.235Z,6.30
2023-03-26T21:30:55.906Z,6.20
2023-03-26T21:33:58.218Z,6.20
2023-03-26T21:37:00.989Z,6.20
2023-03-26T21:40:12.955Z,6.30
2023-03-26T21:43:15.105Z,6.20
2023-03-26T21:46:18.053Z,6.20
2023-03-26T21:49:20.438Z,6.30
2023-03-26T21:52:22.596Z,6.30
2023-03-26T21:55:24.845Z,6.30
2023-03-26T21:58:41.142Z,6.30
2023-03-26T22:01:51.200Z,6.30
2023-03-26T22:05:06.536Z,6.30
2023-03-26T22:08:24.351Z,6.30
2023-03-26T22:11:26.295Z,6.30
2023-03-26T22:14:28.120Z,6.30
2023-03-26T22:17:29.901Z,6.30
2023-03-26T22:20:31.800Z,6.30
2023-03-26T22:23:38.245Z,6.30
2023-03-26T22:26:40.337Z,6.30
2023-03-26T22:29:42.297Z,6.30
2023-03-26T22:32:44.798Z,6.20
2023-03-26T22:35:47.041Z,6.20
2023-03-26T22:38:48.934Z,6.20
2023-03-26T22:41:50.886Z,6.20
2023-03-26T22:44:52.751Z,6.20
2023-03-26T22:48:03.483Z,6.20
2023-03-26T22:51:08.402Z,6.20
2023-03-26T22:54:10.351Z,6.20
2023-03-26T22:57:12.226Z,6.20
2023-03-26T23:00:16.521Z,6.20
2023-03-26T23:03:20.282Z,6.20
2023-03-26T23:06:37.352Z,6.10
2023-03-26T23:09:39.246Z,6.20
2023-03-26T23:12:41.570Z,6.20
2023-03-26T23:15:45.074Z,6.10
2023-03-26T23:18:47.311Z,6.10
2023-03-26T23:21:49.100Z,6.10
2023-03-26T23:24:51.444Z,6.10
2023-03-26T23:27:53.691Z,6.10
2023-03-26T23:30:56.150Z,6.00
2023-03-26T23:33:59.459Z,6.00
2023-03-26T23:37:01.564Z,6.00
2023-03-26T23:40:09.931Z,6.00
2023-03-26T23:43:12.239Z,6.00
2023-03-26T23:46:17.752Z,5.90
2023-03-26T23:49:19.602Z,5.90
2023-03-26T23:52:22.563Z,5.90
2023-03-26T23:55:28.266Z,5.90
2023-03-26T23:58:30.869Z,5.90
